Share

Ava, MO (65608)

10:27 AM CDT on April 23, 2014 (GMT -0500)
KMOAVA4 Elev 1273 ft | 36.96 °N, 92.67 °W | Change Station

Current weather conditions updated 1 second ago

Clear
Clear
63.5 °F
Feels Like 63.5 °F
N
4.5
Wind Variable Wind from ESE
Gusts 10.5 mph
Sunrise 6:25 AM
Sunset 7:52 PM
Moon Waning Crescent

Today is forecast to be Warmer than yesterday.

Pressure 30.04 in
Visibility 10.0 miles
Clouds Clear
Dew Point 26 °F
Humidity 24%
Rainfall 0.00 in
Snow Depth Not available.
UV 5 out of 16
Pollen 10.80 out of 12
Air Quality Not available.
Flu Activity Sporadic
METAR KBPK 231453Z AUTO 15008KT 10SM CLR 18/02 A3005 RMK AO2 SLP170 T01780022 51004

More Conditions Fewer Conditions

Pressure 30.04 in
Visibility 10.0 miles
Clouds Clear
Dew Point 26 °F
Humidity 24%
Rainfall 0.00 in
Snow Depth Not available.
UV 5 out of 16
Pollen 10.80 out of 12
Air Quality Not available.
Flu Activity Sporadic
METAR KBPK 231453Z AUTO 15008KT 10SM CLR 18/02 A3005 RMK AO2 SLP170 T01780022 51004

More Conditions Fewer Conditions

10-Day Weather Forecast

Almanac

Astronomy

Apr. 23, 2014 Rise Set
Actual Time 6:25 AM CDT 7:52 PM CDT
Civil Twilight 5:58 AM CDT 8:19 PM CDT
Nautical Twilight 5:25 AM CDT 8:52 PM CDT
Astronomical Twilight 4:51 AM CDT 9:27 PM CDT
Moon 2:49 AM CDT 2:09 PM CDT
Length of Visible Light 14h 21m
Length of Day
13h 26m
Tomorrow will be 2m 8s longer.
Waning Crescent, 35% of the Moon is Illuminated
Today
Waning Crescent
Apr 29
New
May 6
First Quarter
May 14
Full
May 21
Last Quarter

Today's Extremes

State Highs State Lows

Community

  • spring flowers
    spring flowers
  • Earth Day Spectrum Ove' Blue
    Earth Day Spectrum Ove' Blue
  • BARN B&W
    BARN B&W
  • April Sunset
    April Sunset
  • Waiting..
    Waiting..

WunderPhotos

Upload Photos

1,704,307 photos uploaded!

Nearby

Snow Depth

Station Depth Elevation
No new snow has been reported.

Coastal Water Temperatures

Place Temperature
No Stations Reporting

Earthquake Activity

City Distance Mag. Time & Date
No recent earthquake activity has been reported nearby.
Minimum magnitude displayed is 2.5.

Nearby Weather Stations

Station Location Temp. Dew Point Humidity Wind Precip. Elev Updated Type
Ava, MO 63.5 °F 26 °F 24% ESE  at  4.5 mph 0.00 in / hr 1273 ft 10:27 AM CDT Rapid Fire
Ava, MO 63.1 °F 39 °F 41% SSE  at  5.0 mph 0.00 in / hr 1365 ft 10:27 AM CDT Normal
Jackson Mill, Ava, MO 66.6 °F 40 °F 37% ESE  at  4.2 mph - / hr 1181 ft 10:24 AM CDT Normal
Rome, Missouri, Ava, MO 67.3 °F 43 °F 41% SE  at  5.0 mph 0.00 in / hr 981 ft 10:25 AM CDT Normal
Vanzant, MO, Missouri, MO 63.9 °F 34 °F 33% South  at  6.9 mph 0.00 in / hr 1191 ft 10:27 AM CDT Rapid Fire
RAWS AVA MO, Rueter, MO 62 °F 37 °F 40% SSE  at  8 mph 0.00 in / hr 1100 ft 9:53 AM CDT MADIS

Show More Stations Show Fewer Stations

What do you think?

We're not finished. Please let us know what you like, what you don't like, and what you are still missing.